Decoded Metar for CZUM (CHURCHILL FALLS in NL, CANADA) (IATA:ZUM) | Meteo·Mobile Aviation Weather
aviador You're here:

CZUM Decoded Metar

CHURCHILL FALLS in NL, CANADA
Report Time2018-11-18 08:00:00
UTC Time2018-11-18 08:45:46
Flight Rules vfr VFR
Wind280° at 09 Gusting to 16 kt
W.Decomp.*RWY 31: 8.9 kt HW 1.3 kt LCW
W.Rank280° ranks 2
Current wind is above 280° avg. (7.5)
Visibility9999 m
Phenomena:N/A
Clouds:N/A
Expected CloudBase > 1,200 ft AGL from Temp-Dew spread
CeilingNone
Temp-14°C (ISA -26)
Dew Point-17°C (78% RH)
AAT-20.7°C
QNH1004 hPa
Density Alt-1,503 ft
Elevation1,444 ft
Report Wrong Elevation
Raw Report
CZUM 180800Z AUTO 28009G16KT 9SM CLR M14/M17 A2966 RMK SLP082=

Extra information for CZUM:More info

Metar Taf Metar & Taf Last 4 Metars F.Rules Stats Wind Profile Meteogram Temp Stats Airport Information Weather charts Add Link Nearby VenuesMetar ALERT Operation Metar Decoded Social comments